Nearby METAR Reports

 

KIAG - Niagara Falls, New York, USA
Distance from station: W 12mi, 20km
Updated: 05/24/2019 8:53am
Clear
Clear
 Wind from NNW
Wind: NNW 13 mph , 20 km/h
Temperature: 57°F , 14°C
Dew Point: 48°F , 9°C
Humidity: 72%
Barometer: 1018.3 hPa
Clouds: Clear
Visibility: 10 miles , 16 km
2019/05/24 12:53 KIAG 241253Z 33011KT 10SM CLR 14/09 A3007 RMK AO2 SLP184 T01440094
KBUF - Buffalo/Cheektow, New York, USA
Distance from station: S 13mi, 21km
Updated: 05/24/2019 8:54am
Partly cloudy
Partly cloudy
 Wind from NNW
Wind: NNW 10 mph , 17 km/h
Temperature: 59°F , 15°C
Dew Point: 50°F , 10°C
Humidity: 72%
Barometer: 1018.6 hPa
Clouds: Partly cloudy
Visibility: 10 miles , 16 km
Cloud details: Partly cloudy 2100 ft
Partly cloudy 18000 ft
Partly cloudy 25000 ft
2019/05/24 12:54 KBUF 241254Z 34009KT 10SM SCT021 SCT180 SCT250 15/10 A3008 RMK AO2 SLP185 T01500100
 
KROC - Rochester, New York, USA
Distance from station: E 51mi, 82km
Updated: 05/24/2019 8:54am
Mostly cloudy
Mostly cloudy
 Wind from NW
Wind: NW 10 mph , 17 km/h, Gust: 20 mph , 31 km/h
Temperature: 61°F , 16°C
Dew Point: 50°F , 10°C
Humidity: 68%
Barometer: 1017.3 hPa
Clouds: Mostly cloudy
Visibility: 10 miles , 16 km
Cloud details: Few Clouds 2200 ft
Mostly cloudy 2800 ft
2019/05/24 12:54 KROC 241254Z 31009G17KT 10SM FEW022 BKN028 16/10 A3004 RMK AO2 SLP175 T01560100
CYSN - St. Catharines A, Ontario, Canada
Distance from station: WNW 25mi, 40km
Updated: 05/24/2019 8:00am
Few Clouds
Few Clouds
 Wind from WNW
Wind: WNW 10 mph , 17 km/h
Temperature: 57°F , 14°C
Dew Point: 52°F , 11°C
Humidity: 82%
Barometer: 1018.3 hPa
Clouds: Few Clouds
Visibility: 15 miles , 24 km
Cloud details: Few Clouds 24000 ft
2019/05/24 12:00 CYSN 241200Z 29009KT 15SM FEW240 14/11 A3007 RMK CI1 SLP183
 
KOLE - Olean, New York, USA
Distance from station: SSE 63mi, 102km
Updated: 05/24/2019 8:35am
Partly cloudy
Partly cloudy
 Wind from NW
Wind: NW 14 mph , 22 km/h, Gust: 24 mph , 39 km/h
Temperature: 52°F , 11°C
Dew Point: 46°F , 8°C
Humidity: 82%
Barometer: 1018.6 hPa
Clouds: Partly cloudy
Visibility: 10 miles , 16 km
Cloud details: Partly cloudy 1900 ft
2019/05/24 12:35 KOLE 241235Z AUTO 31012G21KT 10SM SCT019 11/08 A3008 RMK AO2
KJHW - Jamestown, New York, USA
Distance from station: SSW 74mi, 119km
Updated: 05/24/2019 8:56am
Few Clouds
Few Clouds
 Wind from NNW
Wind: NNW 7 mph , 11 km/h
Temperature: 57°F , 14°C
Dew Point: 48°F , 9°C
Humidity: 72%
Barometer: 1019.6 hPa
Clouds: Few Clouds
Visibility: 10 miles , 16 km
Cloud details: Few Clouds 1900 ft
2019/05/24 12:56 KJHW 241256Z AUTO 34006KT 10SM FEW019 14/09 A3011 RMK AO2 SLP198 T01390094
 
CWWZ - Port Weller (mar, Ontario, Canada
Distance from station: WNW 28mi, 45km
Updated: 05/24/2019 8:00am

 Wind from W
Wind: W 13 mph , 20 km/h
Temperature: 54°F , 12°C
Dew Point: 48°F , 9°C
Humidity: 82%
2019/05/24 12:00 CWWZ 241200Z AUTO 28011KT 12/09 RMK AO1 SLP183 T01180093 52025
CWPC - Port Colborne(Au, Ontario, Canada
Distance from station: WSW 33mi, 53km
Updated: 05/24/2019 8:00am

 Wind from NW
Wind: NW 12 mph , 19 km/h
Temperature: 55°F , 13°C
Dew Point: 48°F , 9°C
Humidity: 77%
2019/05/24 12:00 CWPC 241200Z AUTO 32010KT 13/09 RMK AO1 SLP187 T01310086 53018
 
CXVN - Vineland (au8), Ontario, Canada
Distance from station: W 36mi, 58km
Updated: 05/24/2019 8:00am

 Wind from WNW
Wind: WNW 10 mph , 17 km/h
Temperature: 57°F , 14°C
Dew Point: 48°F , 9°C
Humidity: 72%
2019/05/24 12:00 CXVN 241200Z AUTO 29009KT 14/09 RMK AO1 SLP176 T01350094 53023
CYTZ - Toronto Il Vor, Ontario, Canada
Distance from station: NW 50mi, 81km
Updated: 05/24/2019 8:00am
Clear
Clear
 Wind from NNW
Wind: NNW 8 mph , 13 km/h, Gust: 17 mph , 28 km/h
Clouds: Clear
Visibility: 9 miles , 14 km
2019/05/24 12:00 CYTZ 241200Z AUTO 33007G15KT 260V360 9SM CLR RMK T MISG TD MISG DENSITY ALT MISG
 
CXTO - Toronto City, Ontario, Canada
Distance from station: NW 52mi, 84km
Updated: 05/24/2019 8:00am

 
Temperature: 57°F , 14°C
Dew Point: 46°F , 8°C
Humidity: 67%
2019/05/24 12:00 CXTO 241200Z AUTO 14/08 RMK AO1 SLP175 T01350082 53021
KDKK - Dunkirk, New York, USA
Distance from station: SW 52mi, 84km
Updated: 05/24/2019 8:53am
Clear
Clear
 Wind from W
Wind: W 8 mph , 13 km/h
Temperature: 59°F , 15°C
Dew Point: 48°F , 9°C
Humidity: 68%
Barometer: 1019.6 hPa
Clouds: Clear
Visibility: 10 miles , 16 km
2019/05/24 12:53 KDKK 241253Z AUTO 28007KT 10SM CLR 15/09 A3011 RMK AO2 SLP194 T01500089
 
CYOO - Oshawa, Ontario, Canada
Distance from station: N 56mi, 90km
Updated: 05/24/2019 8:00am
Clear
Clear
 Wind from NW
Wind: NW 17 mph , 28 km/h, Gust: 24 mph , 39 km/h
Temperature: 59°F , 15°C
Dew Point: 50°F , 10°C
Humidity: 72%
Barometer: 1016.9 hPa
Clouds: Clear
Visibility: 9 miles , 14 km
2019/05/24 12:00 CYOO 241200Z AUTO 32015G21KT 9SM CLR 15/10 A3003 RMK SLP169
CWWB - Burlington Piers, Ontario, Canada
Distance from station: WNW 56mi, 91km
Updated: 05/24/2019 8:00am

 Wind from W
Wind: W 8 mph , 13 km/h
Temperature: 57°F , 14°C
Dew Point: 48°F , 9°C
Humidity: 72%
2019/05/24 12:00 CWWB 241200Z AUTO 27007KT 14/09 RMK AO1 SLP181 T01430087 53019
 
CYYZ - Toronto/Pearson, Ontario, Canada
Distance from station: NW 60mi, 96km
Updated: 05/24/2019 8:00am
Few Clouds
Few Clouds
 Wind from NNW
Wind: NNW 10 mph , 17 km/h, Gust: 18 mph , 30 km/h
Temperature: 57°F , 14°C
Dew Point: 50°F , 10°C
Humidity: 77%
Barometer: 1017.9 hPa
Clouds: Few Clouds
Visibility: 15 miles , 24 km
Cloud details: Few Clouds 5000 ft
Few Clouds 18000 ft
2019/05/24 12:00 CYYZ 241200Z 33009G16KT 15SM FEW050 FEW180 14/10 A3006 RMK SC1AC1 SC TR SLP179
CYKZ - Toronto Buttonvi, Ontario, Canada
Distance from station: NW 62mi, 99km
Updated: 01/03/2019 4:00am
NOT Current
Partly cloudy
Partly cloudy
 Wind from WSW
Wind: WSW 5 mph , 7 km/h
Temperature: 27°F , -3°C
Wind Chill: 21°F , -6°C
Dew Point: 23°F , -5°C
Humidity: 86%
Barometer: 1010.8 hPa
Clouds: Partly cloudy
Visibility: 15 miles , 24 km
Cloud details: Partly cloudy 4000 ft
2019/01/03 09:00 CYKZ 030900Z 25004KT 15SM SCT040 M03/M05 A2985 RMK SC3 LAST STFD OBS FAREWELL SLP118
 
CXHM - Hamilton Rbg Cs, Ontario, Canada
Distance from station: W 62mi, 100km
Updated: 05/24/2019 8:00am

 Wind from WNW
Wind: WNW 5 mph , 7 km/h
Temperature: 57°F , 14°C
Dew Point: 48°F , 9°C
Humidity: 72%
2019/05/24 12:00 CXHM 241200Z AUTO 30004KT 14/09 RMK AO1 SLP179 T01410094 51021
KDSV - Dansville, New York, USA
Distance from station: SE 62mi, 100km
Updated: 05/24/2019 8:54am
Overcast
Overcast
 Wind from NW
Wind: NW 14 mph , 22 km/h
Temperature: 61°F , 16°C
Dew Point: 50°F , 10°C
Humidity: 68%
Barometer: 1017.9 hPa
Clouds: Overcast
Visibility: 10 miles , 16 km
Cloud details: Overcast 2700 ft
2019/05/24 12:54 KDSV 241254Z AUTO 32012KT 10SM OVC027 16/10 A3006 RMK AO2 SLP185 T01560100
 
CYHM - Hamilton Airport, Ontario, Canada
Distance from station: W 63mi, 101km
Updated: 05/24/2019 8:00am
Few Clouds
Few Clouds
 Wind from WNW
Wind: WNW 9 mph , 15 km/h
Temperature: 55°F , 13°C
Dew Point: 48°F , 9°C
Humidity: 77%
Barometer: 1018.6 hPa
Clouds: Few Clouds
Visibility: 15 miles , 24 km
Cloud details: Few Clouds 25000 ft
2019/05/24 12:00 CYHM 241200Z 30008KT 15SM FEW250 13/09 A3008 RMK CI1 SLP187
CWNC - Cobourg (mars), Ontario, Canada
Distance from station: NNE 63mi, 102km
Updated: 05/24/2019 8:00am

 Wind from NW
Wind: NW 5 mph , 7 km/h
Temperature: 59°F , 15°C
Dew Point: 52°F , 11°C
Humidity: 77%
2019/05/24 12:00 CWNC 241200Z AUTO 31004KT 15/11 RMK AO1 SLP157 T01480108 53031